sensor_id;sensor_type;location;lat;lon;timestamp;P1;durP1;ratioP1;P2;durP2;ratioP2
68923;SDS011;55961;52.156;20.942;2022-08-19T00:00:01;18.70;;;12.85;;
68923;SDS011;55961;52.156;20.942;2022-08-19T00:02:49;21.08;;;13.10;;
68923;SDS011;55961;52.156;20.942;2022-08-19T00:05:15;17.90;;;12.77;;
68923;SDS011;55961;52.156;20.942;2022-08-19T00:07:42;14.68;;;12.27;;
68923;SDS011;55961;52.156;20.942;2022-08-19T00:10:09;16.13;;;13.00;;
68923;SDS011;55961;52.156;20.942;2022-08-19T00:12:38;20.20;;;12.77;;
68923;SDS011;55961;52.156;20.942;2022-08-19T00:15:05;18.77;;;12.80;;
68923;SDS011;55961;52.156;20.942;2022-08-19T00:17:36;17.35;;;13.15;;
68923;SDS011;55961;52.156;20.942;2022-08-19T00:20:04;18.90;;;13.10;;
68923;SDS011;55961;52.156;20.942;2022-08-19T00:22:31;18.40;;;12.98;;
68923;SDS011;55961;52.156;20.942;2022-08-19T00:24:58;18.33;;;12.35;;
68923;SDS011;55961;52.156;20.942;2022-08-19T00:27:24;18.73;;;12.87;;
68923;SDS011;55961;52.156;20.942;2022-08-19T00:29:50;16.58;;;12.85;;
68923;SDS011;55961;52.156;20.942;2022-08-19T00:32:16;19.17;;;13.20;;
68923;SDS011;55961;52.156;20.942;2022-08-19T00:34:42;18.77;;;13.43;;
68923;SDS011;55961;52.156;20.942;2022-08-19T00:37:08;17.60;;;14.20;;
68923;SDS011;55961;52.156;20.942;2022-08-19T00:39:34;17.37;;;13.27;;
68923;SDS011;55961;52.156;20.942;2022-08-19T00:42:00;18.45;;;13.55;;
68923;SDS011;55961;52.156;20.942;2022-08-19T00:44:27;17.90;;;13.50;;
68923;SDS011;55961;52.156;20.942;2022-08-19T00:46:55;15.27;;;12.38;;
68923;SDS011;55961;52.156;20.942;2022-08-19T00:49:37;19.90;;;13.30;;
68923;SDS011;55961;52.156;20.942;2022-08-19T00:52:08;19.35;;;13.63;;
68923;SDS011;55961;52.156;20.942;2022-08-19T00:54:38;20.65;;;13.23;;
68923;SDS011;55961;52.156;20.942;2022-08-19T00:57:06;19.27;;;13.25;;
68923;SDS011;55961;52.156;20.942;2022-08-19T00:59:36;17.70;;;12.55;;
68923;SDS011;55961;52.156;20.942;2022-08-19T01:02:05;19.10;;;12.83;;
68923;SDS011;55961;52.156;20.942;2022-08-19T01:04:31;20.42;;;13.18;;
68923;SDS011;55961;52.156;20.942;2022-08-19T01:06:57;17.90;;;12.20;;
68923;SDS011;55961;52.156;20.942;2022-08-19T01:09:24;18.83;;;13.30;;
68923;SDS011;55961;52.156;20.942;2022-08-19T01:11:50;17.10;;;13.63;;
68923;SDS011;55961;52.156;20.942;2022-08-19T01:14:17;17.17;;;13.00;;
68923;SDS011;55961;52.156;20.942;2022-08-19T01:16:44;17.33;;;13.77;;
68923;SDS011;55961;52.156;20.942;2022-08-19T01:24:47;19.33;;;13.68;;
68923;SDS011;55961;52.156;20.942;2022-08-19T01:27:14;18.75;;;13.52;;
68923;SDS011;55961;52.156;20.942;2022-08-19T01:29:41;16.80;;;12.90;;
68923;SDS011;55961;52.156;20.942;2022-08-19T01:32:10;17.47;;;12.40;;
68923;SDS011;55961;52.156;20.942;2022-08-19T01:34:38;16.33;;;11.25;;
68923;SDS011;55961;52.156;20.942;2022-08-19T01:37:08;16.25;;;12.30;;
68923;SDS011;55961;52.156;20.942;2022-08-19T01:39:36;21.65;;;12.23;;
68923;SDS011;55961;52.156;20.942;2022-08-19T01:42:04;18.38;;;12.48;;
68923;SDS011;55961;52.156;20.942;2022-08-19T01:44:32;15.60;;;12.03;;
68923;SDS011;55961;52.156;20.942;2022-08-19T01:46:58;17.02;;;11.75;;
68923;SDS011;55961;52.156;20.942;2022-08-19T01:49:25;19.20;;;12.05;;
68923;SDS011;55961;52.156;20.942;2022-08-19T01:51:52;18.80;;;11.82;;
68923;SDS011;55961;52.156;20.942;2022-08-19T01:54:19;16.95;;;11.68;;
68923;SDS011;55961;52.156;20.942;2022-08-19T01:56:48;17.07;;;12.47;;
68923;SDS011;55961;52.156;20.942;2022-08-19T01:59:17;17.40;;;12.18;;
68923;SDS011;55961;52.156;20.942;2022-08-19T02:01:45;16.60;;;11.98;;
68923;SDS011;55961;52.156;20.942;2022-08-19T02:04:11;16.17;;;11.95;;
68923;SDS011;55961;52.156;20.942;2022-08-19T02:06:37;19.13;;;12.77;;
68923;SDS011;55961;52.156;20.942;2022-08-19T02:09:05;18.35;;;12.02;;
68923;SDS011;55961;52.156;20.942;2022-08-19T02:11:34;17.13;;;12.23;;
68923;SDS011;55961;52.156;20.942;2022-08-19T02:14:02;17.13;;;12.15;;
68923;SDS011;55961;52.156;20.942;2022-08-19T02:16:29;16.85;;;11.88;;
68923;SDS011;55961;52.156;20.942;2022-08-19T02:18:56;17.33;;;11.43;;
68923;SDS011;55961;52.156;20.942;2022-08-19T02:21:23;17.58;;;11.90;;
68923;SDS011;55961;52.156;20.942;2022-08-19T02:23:49;17.88;;;12.05;;
68923;SDS011;55961;52.156;20.942;2022-08-19T02:26:16;16.95;;;11.90;;
68923;SDS011;55961;52.156;20.942;2022-08-19T02:28:42;18.17;;;11.93;;
68923;SDS011;55961;52.156;20.942;2022-08-19T02:31:12;19.17;;;12.37;;
68923;SDS011;55961;52.156;20.942;2022-08-19T02:33:42;19.52;;;12.55;;
68923;SDS011;55961;52.156;20.942;2022-08-19T02:36:09;18.08;;;12.30;;
68923;SDS011;55961;52.156;20.942;2022-08-19T02:38:36;16.42;;;12.23;;
68923;SDS011;55961;52.156;20.942;2022-08-19T02:41:04;18.63;;;12.80;;
68923;SDS011;55961;52.156;20.942;2022-08-19T02:43:39;18.55;;;13.20;;
68923;SDS011;55961;52.156;20.942;2022-08-19T02:46:13;18.90;;;12.70;;
68923;SDS011;55961;52.156;20.942;2022-08-19T02:48:49;20.67;;;12.95;;
68923;SDS011;55961;52.156;20.942;2022-08-19T02:51:20;16.02;;;13.13;;
68923;SDS011;55961;52.156;20.942;2022-08-19T02:53:53;17.23;;;12.77;;
68923;SDS011;55961;52.156;20.942;2022-08-19T02:56:19;17.52;;;12.85;;
68923;SDS011;55961;52.156;20.942;2022-08-19T02:58:46;18.20;;;13.25;;
68923;SDS011;55961;52.156;20.942;2022-08-19T03:01:19;17.60;;;13.00;;
68923;SDS011;55961;52.156;20.942;2022-08-19T03:03:49;19.10;;;13.60;;
68923;SDS011;55961;52.156;20.942;2022-08-19T03:06:16;19.33;;;13.67;;
68923;SDS011;55961;52.156;20.942;2022-08-19T03:08:43;19.83;;;14.07;;
68923;SDS011;55961;52.156;20.942;2022-08-19T03:11:14;18.38;;;13.38;;
68923;SDS011;55961;52.156;20.942;2022-08-19T03:13:41;18.38;;;13.15;;
68923;SDS011;55961;52.156;20.942;2022-08-19T03:16:08;18.33;;;13.98;;
68923;SDS011;55961;52.156;20.942;2022-08-19T03:18:35;17.03;;;12.67;;
68923;SDS011;55961;52.156;20.942;2022-08-19T03:21:01;18.63;;;13.30;;
68923;SDS011;55961;52.156;20.942;2022-08-19T03:23:27;19.00;;;12.90;;
68923;SDS011;55961;52.156;20.942;2022-08-19T03:25:53;21.48;;;13.23;;
68923;SDS011;55961;52.156;20.942;2022-08-19T03:28:20;23.13;;;13.50;;
68923;SDS011;55961;52.156;20.942;2022-08-19T03:31:00;18.80;;;11.68;;
68923;SDS011;55961;52.156;20.942;2022-08-19T03:33:28;17.08;;;13.38;;
68923;SDS011;55961;52.156;20.942;2022-08-19T03:36:01;19.38;;;13.85;;
68923;SDS011;55961;52.156;20.942;2022-08-19T03:38:35;20.15;;;13.77;;
68923;SDS011;55961;52.156;20.942;2022-08-19T03:41:03;22.50;;;14.10;;
68923;SDS011;55961;52.156;20.942;2022-08-19T03:43:32;17.83;;;12.98;;
68923;SDS011;55961;52.156;20.942;2022-08-19T03:46:01;17.85;;;12.95;;
68923;SDS011;55961;52.156;20.942;2022-08-19T03:48:32;18.00;;;13.63;;
68923;SDS011;55961;52.156;20.942;2022-08-19T03:51:00;17.95;;;13.00;;
68923;SDS011;55961;52.156;20.942;2022-08-19T03:53:27;20.23;;;13.73;;
68923;SDS011;55961;52.156;20.942;2022-08-19T03:55:54;21.05;;;14.45;;
68923;SDS011;55961;52.156;20.942;2022-08-19T03:58:22;19.98;;;13.55;;
68923;SDS011;55961;52.156;20.942;2022-08-19T04:00:48;22.25;;;13.32;;
68923;SDS011;55961;52.156;20.942;2022-08-19T04:03:14;19.67;;;13.73;;
68923;SDS011;55961;52.156;20.942;2022-08-19T04:05:40;17.40;;;14.05;;
68923;SDS011;55961;52.156;20.942;2022-08-19T04:08:06;19.63;;;13.50;;
68923;SDS011;55961;52.156;20.942;2022-08-19T04:10:35;19.17;;;14.00;;
68923;SDS011;55961;52.156;20.942;2022-08-19T04:13:02;19.33;;;14.13;;
68923;SDS011;55961;52.156;20.942;2022-08-19T04:15:31;20.15;;;14.48;;
68923;SDS011;55961;52.156;20.942;2022-08-19T04:18:01;20.85;;;13.77;;
68923;SDS011;55961;52.156;20.942;2022-08-19T04:20:27;18.17;;;13.85;;
68923;SDS011;55961;52.156;20.942;2022-08-19T04:22:53;21.93;;;14.33;;
68923;SDS011;55961;52.156;20.942;2022-08-19T04:25:19;19.58;;;14.50;;
68923;SDS011;55961;52.156;20.942;2022-08-19T04:27:44;18.42;;;13.52;;
68923;SDS011;55961;52.156;20.942;2022-08-19T04:30:12;21.67;;;14.13;;
68923;SDS011;55961;52.156;20.942;2022-08-19T04:32:39;19.30;;;13.57;;
68923;SDS011;55961;52.156;20.942;2022-08-19T04:35:05;18.58;;;13.57;;
68923;SDS011;55961;52.156;20.942;2022-08-19T04:37:31;20.08;;;14.05;;
68923;SDS011;55961;52.156;20.942;2022-08-19T04:39:58;21.67;;;14.70;;
68923;SDS011;55961;52.156;20.942;2022-08-19T04:42:43;20.52;;;13.40;;
68923;SDS011;55961;52.156;20.942;2022-08-19T04:45:13;17.15;;;13.75;;
68923;SDS011;55961;52.156;20.942;2022-08-19T04:47:41;20.95;;;14.30;;
68923;SDS011;55961;52.156;20.942;2022-08-19T04:50:09;19.08;;;13.82;;
68923;SDS011;55961;52.156;20.942;2022-08-19T04:52:36;19.20;;;14.73;;
68923;SDS011;55961;52.156;20.942;2022-08-19T04:55:07;22.70;;;13.95;;
68923;SDS011;55961;52.156;20.942;2022-08-19T04:57:34;24.55;;;15.02;;
68923;SDS011;55961;52.156;20.942;2022-08-19T05:00:05;20.33;;;13.30;;
68923;SDS011;55961;52.156;20.942;2022-08-19T05:02:33;17.95;;;13.68;;
68923;SDS011;55961;52.156;20.942;2022-08-19T05:04:59;19.80;;;13.83;;
68923;SDS011;55961;52.156;20.942;2022-08-19T05:07:26;19.25;;;14.07;;
68923;SDS011;55961;52.156;20.942;2022-08-19T05:09:52;19.90;;;13.85;;
68923;SDS011;55961;52.156;20.942;2022-08-19T05:12:18;17.30;;;13.77;;
68923;SDS011;55961;52.156;20.942;2022-08-19T05:14:45;21.70;;;14.43;;
68923;SDS011;55961;52.156;20.942;2022-08-19T05:17:12;18.85;;;13.93;;
68923;SDS011;55961;52.156;20.942;2022-08-19T05:19:38;17.50;;;12.77;;
68923;SDS011;55961;52.156;20.942;2022-08-19T05:22:23;17.13;;;12.38;;
68923;SDS011;55961;52.156;20.942;2022-08-19T05:25:02;19.73;;;13.13;;
68923;SDS011;55961;52.156;20.942;2022-08-19T05:27:39;21.17;;;13.40;;
68923;SDS011;55961;52.156;20.942;2022-08-19T05:30:09;15.98;;;11.73;;
68923;SDS011;55961;52.156;20.942;2022-08-19T05:32:36;17.17;;;12.60;;
68923;SDS011;55961;52.156;20.942;2022-08-19T05:35:03;18.25;;;12.07;;
68923;SDS011;55961;52.156;20.942;2022-08-19T05:37:30;17.70;;;12.85;;
68923;SDS011;55961;52.156;20.942;2022-08-19T05:39:55;19.40;;;13.90;;
68923;SDS011;55961;52.156;20.942;2022-08-19T05:42:21;21.05;;;12.88;;
68923;SDS011;55961;52.156;20.942;2022-08-19T05:44:48;18.03;;;12.50;;
68923;SDS011;55961;52.156;20.942;2022-08-19T05:47:15;19.63;;;13.18;;
68923;SDS011;55961;52.156;20.942;2022-08-19T05:49:41;18.65;;;12.07;;
68923;SDS011;55961;52.156;20.942;2022-08-19T05:52:09;20.15;;;12.38;;
68923;SDS011;55961;52.156;20.942;2022-08-19T05:54:40;20.52;;;12.07;;
68923;SDS011;55961;52.156;20.942;2022-08-19T05:57:08;19.57;;;12.80;;
68923;SDS011;55961;52.156;20.942;2022-08-19T05:59:35;15.27;;;12.32;;
68923;SDS011;55961;52.156;20.942;2022-08-19T06:02:01;17.83;;;12.38;;
68923;SDS011;55961;52.156;20.942;2022-08-19T06:04:28;19.23;;;12.52;;
68923;SDS011;55961;52.156;20.942;2022-08-19T06:06:54;17.52;;;12.32;;
68923;SDS011;55961;52.156;20.942;2022-08-19T06:09:21;17.43;;;12.27;;
68923;SDS011;55961;52.156;20.942;2022-08-19T06:11:49;19.75;;;12.38;;
68923;SDS011;55961;52.156;20.942;2022-08-19T06:14:21;14.80;;;11.13;;
68923;SDS011;55961;52.156;20.942;2022-08-19T06:16:49;19.58;;;12.60;;
68923;SDS011;55961;52.156;20.942;2022-08-19T06:19:19;16.73;;;11.95;;
68923;SDS011;55961;52.156;20.942;2022-08-19T06:21:48;18.83;;;12.00;;
68923;SDS011;55961;52.156;20.942;2022-08-19T06:24:16;16.73;;;12.25;;
68923;SDS011;55961;52.156;20.942;2022-08-19T06:26:45;15.02;;;11.98;;
68923;SDS011;55961;52.156;20.942;2022-08-19T06:29:13;16.02;;;11.88;;
68923;SDS011;55961;52.156;20.942;2022-08-19T06:31:46;19.70;;;12.10;;
68923;SDS011;55961;52.156;20.942;2022-08-19T06:34:17;19.10;;;12.33;;
68923;SDS011;55961;52.156;20.942;2022-08-19T06:36:45;18.20;;;11.77;;
68923;SDS011;55961;52.156;20.942;2022-08-19T06:39:19;19.23;;;12.80;;
68923;SDS011;55961;52.156;20.942;2022-08-19T06:41:52;17.65;;;12.07;;
68923;SDS011;55961;52.156;20.942;2022-08-19T06:44:21;18.17;;;13.02;;
68923;SDS011;55961;52.156;20.942;2022-08-19T06:46:48;14.27;;;11.67;;
68923;SDS011;55961;52.156;20.942;2022-08-19T06:49:15;16.65;;;12.25;;
68923;SDS011;55961;52.156;20.942;2022-08-19T06:51:43;15.00;;;11.07;;
68923;SDS011;55961;52.156;20.942;2022-08-19T06:54:13;15.38;;;11.55;;
68923;SDS011;55961;52.156;20.942;2022-08-19T06:56:40;20.30;;;12.23;;
68923;SDS011;55961;52.156;20.942;2022-08-19T06:59:07;17.63;;;11.23;;
68923;SDS011;55961;52.156;20.942;2022-08-19T07:01:40;17.10;;;11.10;;
68923;SDS011;55961;52.156;20.942;2022-08-19T07:04:11;16.13;;;10.50;;
68923;SDS011;55961;52.156;20.942;2022-08-19T07:06:36;16.30;;;11.60;;
68923;SDS011;55961;52.156;20.942;2022-08-19T07:09:03;18.77;;;11.60;;
68923;SDS011;55961;52.156;20.942;2022-08-19T07:11:30;15.32;;;11.07;;
68923;SDS011;55961;52.156;20.942;2022-08-19T07:13:58;16.45;;;10.77;;
68923;SDS011;55961;52.156;20.942;2022-08-19T07:16:24;15.38;;;10.90;;
68923;SDS011;55961;52.156;20.942;2022-08-19T07:18:50;14.63;;;10.63;;
68923;SDS011;55961;52.156;20.942;2022-08-19T07:21:21;21.90;;;11.23;;
68923;SDS011;55961;52.156;20.942;2022-08-19T07:23:49;15.68;;;10.27;;
68923;SDS011;55961;52.156;20.942;2022-08-19T07:26:27;19.67;;;10.98;;
68923;SDS011;55961;52.156;20.942;2022-08-19T07:28:55;24.23;;;10.80;;
68923;SDS011;55961;52.156;20.942;2022-08-19T07:31:24;17.60;;;10.97;;
68923;SDS011;55961;52.156;20.942;2022-08-19T07:33:52;13.98;;;11.02;;
68923;SDS011;55961;52.156;20.942;2022-08-19T07:36:27;13.68;;;10.73;;
68923;SDS011;55961;52.156;20.942;2022-08-19T07:38:58;17.08;;;11.02;;
68923;SDS011;55961;52.156;20.942;2022-08-19T07:41:27;14.93;;;10.50;;
68923;SDS011;55961;52.156;20.942;2022-08-19T07:43:56;16.93;;;10.83;;
68923;SDS011;55961;52.156;20.942;2022-08-19T07:46:32;15.77;;;10.45;;
68923;SDS011;55961;52.156;20.942;2022-08-19T07:48:58;21.83;;;11.38;;
68923;SDS011;55961;52.156;20.942;2022-08-19T07:51:25;12.68;;;10.23;;
68923;SDS011;55961;52.156;20.942;2022-08-19T07:53:52;18.75;;;10.73;;
68923;SDS011;55961;52.156;20.942;2022-08-19T07:56:20;16.67;;;11.57;;
68923;SDS011;55961;52.156;20.942;2022-08-19T07:58:47;16.40;;;10.38;;
68923;SDS011;55961;52.156;20.942;2022-08-19T08:01:16;18.30;;;10.55;;
68923;SDS011;55961;52.156;20.942;2022-08-19T08:03:44;14.82;;;10.75;;
68923;SDS011;55961;52.156;20.942;2022-08-19T08:06:29;14.10;;;10.70;;
68923;SDS011;55961;52.156;20.942;2022-08-19T08:09:14;16.80;;;11.63;;
68923;SDS011;55961;52.156;20.942;2022-08-19T08:11:48;19.73;;;10.85;;
68923;SDS011;55961;52.156;20.942;2022-08-19T08:14:18;13.95;;;10.77;;
68923;SDS011;55961;52.156;20.942;2022-08-19T08:16:47;15.18;;;11.05;;
68923;SDS011;55961;52.156;20.942;2022-08-19T08:19:15;16.35;;;10.05;;
68923;SDS011;55961;52.156;20.942;2022-08-19T08:21:42;14.53;;;10.70;;
68923;SDS011;55961;52.156;20.942;2022-08-19T08:24:08;19.45;;;11.20;;
68923;SDS011;55961;52.156;20.942;2022-08-19T08:26:35;16.23;;;10.50;;
68923;SDS011;55961;52.156;20.942;2022-08-19T08:29:00;16.05;;;10.80;;
68923;SDS011;55961;52.156;20.942;2022-08-19T08:31:26;18.63;;;10.75;;
68923;SDS011;55961;52.156;20.942;2022-08-19T08:33:53;24.93;;;10.90;;
68923;SDS011;55961;52.156;20.942;2022-08-19T08:36:20;15.68;;;10.57;;
68923;SDS011;55961;52.156;20.942;2022-08-19T08:38:46;12.50;;;9.75;;
68923;SDS011;55961;52.156;20.942;2022-08-19T08:43:54;20.80;;;10.95;;
68923;SDS011;55961;52.156;20.942;2022-08-19T08:46:30;13.60;;;10.03;;
68923;SDS011;55961;52.156;20.942;2022-08-19T08:51:51;13.95;;;10.35;;
68923;SDS011;55961;52.156;20.942;2022-08-19T08:54:28;13.65;;;11.18;;
68923;SDS011;55961;52.156;20.942;2022-08-19T08:57:09;14.13;;;10.13;;
68923;SDS011;55961;52.156;20.942;2022-08-19T08:59:40;20.13;;;10.07;;
68923;SDS011;55961;52.156;20.942;2022-08-19T09:02:08;19.75;;;9.98;;
68923;SDS011;55961;52.156;20.942;2022-08-19T09:04:35;12.40;;;8.80;;
68923;SDS011;55961;52.156;20.942;2022-08-19T09:10:01;15.80;;;8.88;;
68923;SDS011;55961;52.156;20.942;2022-08-19T09:15:08;13.82;;;8.63;;
68923;SDS011;55961;52.156;20.942;2022-08-19T09:17:37;11.02;;;8.10;;
68923;SDS011;55961;52.156;20.942;2022-08-19T09:22:36;15.57;;;8.02;;
68923;SDS011;55961;52.156;20.942;2022-08-19T09:25:03;11.27;;;8.60;;
68923;SDS011;55961;52.156;20.942;2022-08-19T09:27:30;13.55;;;9.60;;
68923;SDS011;55961;52.156;20.942;2022-08-19T09:29:57;15.13;;;8.60;;
68923;SDS011;55961;52.156;20.942;2022-08-19T09:32:23;11.98;;;9.18;;
68923;SDS011;55961;52.156;20.942;2022-08-19T09:34:50;16.08;;;8.95;;
68923;SDS011;55961;52.156;20.942;2022-08-19T09:37:20;14.80;;;9.00;;
68923;SDS011;55961;52.156;20.942;2022-08-19T09:39:47;13.27;;;9.43;;
68923;SDS011;55961;52.156;20.942;2022-08-19T09:42:13;13.77;;;8.80;;
68923;SDS011;55961;52.156;20.942;2022-08-19T09:44:40;11.90;;;8.90;;
68923;SDS011;55961;52.156;20.942;2022-08-19T09:47:07;13.65;;;8.60;;
68923;SDS011;55961;52.156;20.942;2022-08-19T09:49:35;14.90;;;8.77;;
68923;SDS011;55961;52.156;20.942;2022-08-19T09:52:01;12.73;;;8.50;;
68923;SDS011;55961;52.156;20.942;2022-08-19T09:54:27;12.43;;;8.33;;
68923;SDS011;55961;52.156;20.942;2022-08-19T09:56:54;11.35;;;8.20;;
68923;SDS011;55961;52.156;20.942;2022-08-19T09:59:20;10.55;;;8.05;;
68923;SDS011;55961;52.156;20.942;2022-08-19T10:01:47;18.23;;;8.98;;
68923;SDS011;55961;52.156;20.942;2022-08-19T10:04:12;16.53;;;8.00;;
68923;SDS011;55961;52.156;20.942;2022-08-19T10:06:38;11.38;;;7.75;;
68923;SDS011;55961;52.156;20.942;2022-08-19T10:09:07;12.45;;;8.35;;
68923;SDS011;55961;52.156;20.942;2022-08-19T10:11:35;14.63;;;8.13;;
68923;SDS011;55961;52.156;20.942;2022-08-19T10:14:04;13.27;;;7.97;;
68923;SDS011;55961;52.156;20.942;2022-08-19T10:16:31;14.00;;;7.90;;
68923;SDS011;55961;52.156;20.942;2022-08-19T10:18:57;14.30;;;8.60;;
68923;SDS011;55961;52.156;20.942;2022-08-19T10:21:24;10.98;;;8.27;;
68923;SDS011;55961;52.156;20.942;2022-08-19T10:23:54;11.15;;;7.80;;
68923;SDS011;55961;52.156;20.942;2022-08-19T10:26:26;11.95;;;8.27;;
68923;SDS011;55961;52.156;20.942;2022-08-19T10:28:54;12.80;;;8.60;;
68923;SDS011;55961;52.156;20.942;2022-08-19T10:31:23;13.07;;;8.23;;
68923;SDS011;55961;52.156;20.942;2022-08-19T10:33:51;17.38;;;8.38;;
68923;SDS011;55961;52.156;20.942;2022-08-19T10:36:25;15.30;;;7.93;;
68923;SDS011;55961;52.156;20.942;2022-08-19T10:38:55;12.57;;;8.77;;
68923;SDS011;55961;52.156;20.942;2022-08-19T10:41:25;12.87;;;8.07;;
68923;SDS011;55961;52.156;20.942;2022-08-19T10:43:54;12.43;;;8.35;;
68923;SDS011;55961;52.156;20.942;2022-08-19T10:46:22;13.60;;;7.60;;
68923;SDS011;55961;52.156;20.942;2022-08-19T10:48:50;15.65;;;8.43;;
68923;SDS011;55961;52.156;20.942;2022-08-19T10:51:16;12.32;;;8.65;;
68923;SDS011;55961;52.156;20.942;2022-08-19T10:54:02;15.03;;;8.70;;
68923;SDS011;55961;52.156;20.942;2022-08-19T10:56:28;12.05;;;8.68;;
68923;SDS011;55961;52.156;20.942;2022-08-19T10:59:13;14.82;;;8.80;;
68923;SDS011;55961;52.156;20.942;2022-08-19T11:01:41;14.27;;;9.35;;
68923;SDS011;55961;52.156;20.942;2022-08-19T11:04:08;16.75;;;9.40;;
68923;SDS011;55961;52.156;20.942;2022-08-19T11:06:36;11.93;;;8.90;;
68923;SDS011;55961;52.156;20.942;2022-08-19T11:09:04;12.15;;;8.45;;
68923;SDS011;55961;52.156;20.942;2022-08-19T11:11:31;12.32;;;8.48;;
68923;SDS011;55961;52.156;20.942;2022-08-19T11:14:15;11.10;;;8.63;;
68923;SDS011;55961;52.156;20.942;2022-08-19T11:16:44;11.77;;;9.65;;
68923;SDS011;55961;52.156;20.942;2022-08-19T11:19:11;16.37;;;8.87;;
68923;SDS011;55961;52.156;20.942;2022-08-19T11:21:40;16.33;;;9.55;;
68923;SDS011;55961;52.156;20.942;2022-08-19T11:24:08;14.50;;;9.40;;
68923;SDS011;55961;52.156;20.942;2022-08-19T11:26:37;15.48;;;9.00;;
68923;SDS011;55961;52.156;20.942;2022-08-19T11:29:04;14.20;;;9.07;;
68923;SDS011;55961;52.156;20.942;2022-08-19T11:31:33;11.53;;;8.60;;
68923;SDS011;55961;52.156;20.942;2022-08-19T11:34:02;13.25;;;8.68;;
68923;SDS011;55961;52.156;20.942;2022-08-19T11:36:30;12.68;;;8.95;;
68923;SDS011;55961;52.156;20.942;2022-08-19T11:38:57;13.45;;;8.38;;
68923;SDS011;55961;52.156;20.942;2022-08-19T11:41:24;16.58;;;8.55;;
68923;SDS011;55961;52.156;20.942;2022-08-19T11:43:50;15.10;;;8.67;;
68923;SDS011;55961;52.156;20.942;2022-08-19T11:46:20;12.95;;;8.23;;
68923;SDS011;55961;52.156;20.942;2022-08-19T11:48:47;12.52;;;8.57;;
68923;SDS011;55961;52.156;20.942;2022-08-19T11:51:16;13.60;;;8.07;;
68923;SDS011;55961;52.156;20.942;2022-08-19T11:53:43;15.43;;;9.18;;
68923;SDS011;55961;52.156;20.942;2022-08-19T11:56:10;17.57;;;9.47;;
68923;SDS011;55961;52.156;20.942;2022-08-19T11:58:37;15.35;;;8.60;;
68923;SDS011;55961;52.156;20.942;2022-08-19T12:01:09;14.93;;;8.57;;
68923;SDS011;55961;52.156;20.942;2022-08-19T12:03:43;11.48;;;9.23;;
68923;SDS011;55961;52.156;20.942;2022-08-19T12:06:12;14.35;;;8.18;;
68923;SDS011;55961;52.156;20.942;2022-08-19T12:08:43;10.50;;;7.83;;
68923;SDS011;55961;52.156;20.942;2022-08-19T12:11:10;12.40;;;8.25;;
68923;SDS011;55961;52.156;20.942;2022-08-19T12:13:37;18.42;;;9.30;;
68923;SDS011;55961;52.156;20.942;2022-08-19T12:16:24;15.93;;;9.07;;
68923;SDS011;55961;52.156;20.942;2022-08-19T12:18:53;13.45;;;8.52;;
68923;SDS011;55961;52.156;20.942;2022-08-19T12:21:21;14.33;;;8.83;;
68923;SDS011;55961;52.156;20.942;2022-08-19T12:23:53;13.43;;;8.13;;
68923;SDS011;55961;52.156;20.942;2022-08-19T12:26:20;13.80;;;7.82;;
68923;SDS011;55961;52.156;20.942;2022-08-19T12:28:46;13.85;;;9.40;;
68923;SDS011;55961;52.156;20.942;2022-08-19T12:31:13;14.75;;;8.20;;
68923;SDS011;55961;52.156;20.942;2022-08-19T12:33:40;11.33;;;8.37;;
68923;SDS011;55961;52.156;20.942;2022-08-19T12:36:09;11.38;;;8.23;;
68923;SDS011;55961;52.156;20.942;2022-08-19T12:38:36;13.38;;;7.43;;
68923;SDS011;55961;52.156;20.942;2022-08-19T12:41:03;12.50;;;8.07;;
68923;SDS011;55961;52.156;20.942;2022-08-19T12:43:34;11.57;;;7.97;;
68923;SDS011;55961;52.156;20.942;2022-08-19T12:46:01;11.67;;;8.40;;
68923;SDS011;55961;52.156;20.942;2022-08-19T12:48:29;12.05;;;8.10;;
68923;SDS011;55961;52.156;20.942;2022-08-19T12:50:55;15.80;;;8.80;;
68923;SDS011;55961;52.156;20.942;2022-08-19T12:53:21;12.20;;;8.20;;
68923;SDS011;55961;52.156;20.942;2022-08-19T12:55:48;12.53;;;7.47;;
68923;SDS011;55961;52.156;20.942;2022-08-19T12:58:21;12.07;;;7.40;;
68923;SDS011;55961;52.156;20.942;2022-08-19T13:00:47;10.80;;;7.80;;
68923;SDS011;55961;52.156;20.942;2022-08-19T13:03:14;13.77;;;7.60;;
68923;SDS011;55961;52.156;20.942;2022-08-19T13:05:40;13.73;;;8.47;;
68923;SDS011;55961;52.156;20.942;2022-08-19T13:08:07;11.50;;;8.05;;
68923;SDS011;55961;52.156;20.942;2022-08-19T13:10:34;11.90;;;8.15;;
68923;SDS011;55961;52.156;20.942;2022-08-19T13:13:01;13.65;;;7.70;;
68923;SDS011;55961;52.156;20.942;2022-08-19T13:15:36;13.02;;;7.40;;
68923;SDS011;55961;52.156;20.942;2022-08-19T13:18:05;15.80;;;7.47;;
68923;SDS011;55961;52.156;20.942;2022-08-19T13:20:34;13.88;;;7.57;;
68923;SDS011;55961;52.156;20.942;2022-08-19T13:23:00;15.25;;;7.47;;
68923;SDS011;55961;52.156;20.942;2022-08-19T13:25:27;11.40;;;7.68;;
68923;SDS011;55961;52.156;20.942;2022-08-19T13:27:52;12.93;;;7.37;;
68923;SDS011;55961;52.156;20.942;2022-08-19T13:30:20;14.48;;;7.75;;
68923;SDS011;55961;52.156;20.942;2022-08-19T13:33:06;12.48;;;7.78;;
68923;SDS011;55961;52.156;20.942;2022-08-19T13:35:48;9.98;;;7.63;;
68923;SDS011;55961;52.156;20.942;2022-08-19T13:38:22;10.32;;;7.60;;
68923;SDS011;55961;52.156;20.942;2022-08-19T13:40:50;13.20;;;7.30;;
68923;SDS011;55961;52.156;20.942;2022-08-19T13:43:18;11.00;;;6.93;;
68923;SDS011;55961;52.156;20.942;2022-08-19T13:45:47;12.43;;;7.07;;
68923;SDS011;55961;52.156;20.942;2022-08-19T13:48:14;13.35;;;7.70;;
68923;SDS011;55961;52.156;20.942;2022-08-19T13:50:43;16.80;;;7.80;;
68923;SDS011;55961;52.156;20.942;2022-08-19T13:53:10;15.73;;;7.50;;
68923;SDS011;55961;52.156;20.942;2022-08-19T13:55:37;13.65;;;7.00;;
68923;SDS011;55961;52.156;20.942;2022-08-19T13:58:04;10.90;;;6.82;;
68923;SDS011;55961;52.156;20.942;2022-08-19T14:00:32;10.63;;;6.93;;
68923;SDS011;55961;52.156;20.942;2022-08-19T14:03:04;10.43;;;6.47;;
68923;SDS011;55961;52.156;20.942;2022-08-19T14:05:30;11.27;;;7.27;;
68923;SDS011;55961;52.156;20.942;2022-08-19T14:07:58;10.77;;;6.55;;
68923;SDS011;55961;52.156;20.942;2022-08-19T14:10:24;11.55;;;7.00;;
68923;SDS011;55961;52.156;20.942;2022-08-19T14:12:55;10.80;;;6.32;;
68923;SDS011;55961;52.156;20.942;2022-08-19T14:15:23;14.38;;;6.80;;
68923;SDS011;55961;52.156;20.942;2022-08-19T14:17:50;12.90;;;5.80;;
68923;SDS011;55961;52.156;20.942;2022-08-19T14:20:17;10.23;;;6.15;;
68923;SDS011;55961;52.156;20.942;2022-08-19T14:22:44;14.63;;;6.45;;
68923;SDS011;55961;52.156;20.942;2022-08-19T14:25:13;12.98;;;6.10;;
68923;SDS011;55961;52.156;20.942;2022-08-19T14:27:41;11.32;;;5.63;;
68923;SDS011;55961;52.156;20.942;2022-08-19T14:30:11;15.07;;;5.93;;
68923;SDS011;55961;52.156;20.942;2022-08-19T14:32:39;12.27;;;6.28;;
68923;SDS011;55961;52.156;20.942;2022-08-19T14:35:05;15.60;;;6.00;;
68923;SDS011;55961;52.156;20.942;2022-08-19T14:37:33;10.93;;;6.25;;
68923;SDS011;55961;52.156;20.942;2022-08-19T14:40:00;13.13;;;6.50;;